Pearson, Wisconsin
Current Conditions -  °F | °C
As of 2:35 PM on Friday 28 Nov 2014 (Local Time) from KAIG Reporting Station
Light Snow Light Snow  
Wind Chill:   Ceiling: 2400
Heat Index: 14°   Visibility: 7mi
Dew Point: 10°   Wind: 6mph
Humidity: 87%   Direction: 140°SE
Pressure: 29.93"   Gusts: NA
Location:  45.36°N, 89.02°W
Report Text: KAIG 282035Z AUTO 14005KT 7SM -SN SCT011 BKN024 OVC060 M10/M12 A2993 RMK AO2 T11021120
Loading
Personal Weather Stations






























Interactive Weather Map New forecast layout! Learn more

10-Day Weather Forecast

Advertisements
Track Severe Weather on mobile